createdAt,value
2019-01-25T00:00:36.045Z,84.24
2019-01-25T00:01:36.072Z,83.61
2019-01-25T00:02:36.070Z,84.24
2019-01-25T00:03:36.012Z,84.45
2019-01-25T00:04:36.004Z,84.14
2019-01-25T00:05:35.987Z,83.93
2019-01-25T00:06:35.982Z,84.45
2019-01-25T00:07:36.007Z,84.17
2019-01-25T00:08:35.967Z,84.14
2019-01-25T00:09:35.951Z,84.70
2019-01-25T00:10:35.961Z,84.24
2019-01-25T00:11:35.931Z,83.93
2019-01-25T00:12:35.936Z,83.82
2019-01-25T00:13:35.925Z,84.14
2019-01-25T00:14:35.904Z,84.17
2019-01-25T00:15:35.882Z,84.28
2019-01-25T00:16:35.893Z,84.49
2019-01-25T00:17:35.863Z,84.67
2019-01-25T00:18:35.882Z,84.49
2019-01-25T00:19:35.866Z,83.86
2019-01-25T00:20:35.837Z,83.86
2019-01-25T00:21:35.817Z,84.07
2019-01-25T00:22:35.803Z,84.17
2019-01-25T00:23:35.795Z,84.70
2019-01-25T00:24:35.814Z,84.60
2019-01-25T00:25:35.776Z,84.28
2019-01-25T00:26:35.777Z,84.28
2019-01-25T00:27:35.793Z,84.67
2019-01-25T00:28:35.769Z,84.45
2019-01-25T00:29:35.754Z,84.03
2019-01-25T00:30:35.712Z,83.40
2019-01-25T00:31:35.704Z,84.07
2019-01-25T00:32:35.698Z,83.72
2019-01-25T00:33:35.705Z,83.97
2019-01-25T00:34:35.670Z,83.50
2019-01-25T00:35:35.689Z,83.72
2019-01-25T00:36:35.653Z,84.24
2019-01-25T00:37:35.637Z,84.14
2019-01-25T00:38:35.648Z,83.82
2019-01-25T00:39:35.616Z,83.82
2019-01-25T00:40:35.607Z,84.14
2019-01-25T00:41:35.594Z,84.35
2019-01-25T00:42:35.587Z,84.24
2019-01-25T00:43:35.598Z,84.70
2019-01-25T00:44:35.570Z,84.67
2019-01-25T00:45:35.560Z,84.67
2019-01-25T00:46:35.536Z,84.67
2019-01-25T00:47:35.560Z,84.35
2019-01-25T00:48:35.519Z,84.24
2019-01-25T00:49:35.507Z,84.03
2019-01-25T00:50:35.492Z,84.49
2019-01-25T00:51:35.489Z,84.67
2019-01-25T00:52:35.497Z,84.81
2019-01-25T00:53:35.459Z,84.98
2019-01-25T00:54:35.450Z,85.23
2019-01-25T00:55:35.463Z,85.09
2019-01-25T00:56:35.452Z,85.13
2019-01-25T00:57:35.420Z,84.98
2019-01-25T00:58:35.407Z,85.30
2019-01-25T00:59:35.397Z,85.09
2019-01-25T01:00:35.413Z,85.09
2019-01-25T01:01:35.372Z,84.77
2019-01-25T01:02:35.362Z,84.67
2019-01-25T01:03:35.354Z,85.13
2019-01-25T01:04:35.347Z,85.23
2019-01-25T01:05:35.366Z,84.77
2019-01-25T01:06:35.359Z,85.30
2019-01-25T01:07:35.312Z,85.44
2019-01-25T01:08:35.323Z,85.34
2019-01-25T01:09:35.292Z,85.76
2019-01-25T01:10:35.281Z,85.55
2019-01-25T01:11:35.288Z,85.13
2019-01-25T01:12:35.272Z,85.44
2019-01-25T01:13:35.240Z,85.51
2019-01-25T01:14:35.230Z,85.83
2019-01-25T01:15:35.265Z,85.51
2019-01-25T01:16:35.213Z,85.61
2019-01-25T01:17:35.198Z,85.02
2019-01-25T01:18:35.215Z,85.02
2019-01-25T01:19:35.173Z,84.88
2019-01-25T01:20:35.171Z,85.30
2019-01-25T01:21:35.181Z,85.30
2019-01-25T01:22:35.146Z,85.51
2019-01-25T01:23:35.156Z,85.30
2019-01-25T01:24:35.135Z,85.30
2019-01-25T01:25:35.138Z,85.13
2019-01-25T01:26:35.102Z,85.72
2019-01-25T01:27:35.120Z,85.76
2019-01-25T01:28:42.720Z,85.83
2019-01-25T01:29:35.067Z,85.93
2019-01-25T01:30:35.054Z,85.44
2019-01-25T01:31:35.075Z,85.34
2019-01-25T01:32:35.031Z,85.23
2019-01-25T01:33:35.051Z,85.34
2019-01-25T01:34:35.009Z,85.44
2019-01-25T01:35:35.001Z,85.72
2019-01-25T01:36:34.988Z,86.29
2019-01-25T01:37:34.978Z,85.55
2019-01-25T01:38:34.984Z,85.76
2019-01-25T01:39:34.955Z,85.97
2019-01-25T01:40:34.940Z,85.83
2019-01-25T01:41:34.932Z,85.72
2019-01-25T01:42:34.937Z,85.86
2019-01-25T01:43:34.909Z,86.18
2019-01-25T01:44:34.903Z,85.76
2019-01-25T01:45:34.886Z,85.86
2019-01-25T01:46:34.876Z,85.76
2019-01-25T01:47:34.889Z,85.23
2019-01-25T01:48:34.856Z,85.66
2019-01-25T01:49:34.874Z,85.34
2019-01-25T01:50:34.835Z,85.86
2019-01-25T01:51:34.834Z,86.08
2019-01-25T01:52:34.814Z,86.29
2019-01-25T01:53:34.796Z,86.29
2019-01-25T01:54:34.816Z,85.66
2019-01-25T01:55:34.777Z,85.86
2019-01-25T01:56:34.767Z,86.08
2019-01-25T01:57:34.763Z,86.08
2019-01-25T01:58:34.745Z,85.97
2019-01-25T01:59:34.757Z,85.76
2019-01-25T02:00:34.720Z,86.18
2019-01-25T02:01:34.712Z,85.76
2019-01-25T02:02:34.702Z,85.86
2019-01-25T02:03:34.691Z,85.76
2019-01-25T02:04:34.720Z,85.55
2019-01-25T02:05:34.671Z,85.76
2019-01-25T02:06:34.660Z,85.51
2019-01-25T02:07:34.646Z,85.93
2019-01-25T02:08:34.669Z,85.83
2019-01-25T02:09:34.626Z,85.55
2019-01-25T02:10:34.620Z,85.51
2019-01-25T02:11:34.602Z,85.83
2019-01-25T02:12:34.592Z,85.83
2019-01-25T02:13:34.606Z,85.72
2019-01-25T02:14:34.567Z,85.19
2019-01-25T02:15:34.556Z,85.19
2019-01-25T02:16:34.556Z,85.19
2019-01-25T02:17:34.534Z,85.30
2019-01-25T02:18:34.545Z,85.13
2019-01-25T02:19:34.527Z,85.72
2019-01-25T02:20:34.505Z,86.25
2019-01-25T02:21:34.490Z,86.18
2019-01-25T02:22:34.481Z,85.72
2019-01-25T02:23:34.469Z,85.72
2019-01-25T02:24:34.484Z,86.04
2019-01-25T02:25:34.453Z,85.83
2019-01-25T02:26:34.443Z,85.83
2019-01-25T02:27:34.423Z,86.15
2019-01-25T02:28:34.451Z,85.72
2019-01-25T02:29:34.408Z,85.16
2019-01-25T02:30:34.398Z,84.88
2019-01-25T02:31:34.379Z,85.30
2019-01-25T02:32:34.371Z,85.19
2019-01-25T02:33:34.398Z,85.09
2019-01-25T02:34:34.348Z,85.30
2019-01-25T02:35:34.339Z,85.09
2019-01-25T02:36:34.327Z,85.83
2019-01-25T02:37:34.317Z,86.35
2019-01-25T02:38:34.327Z,85.83
2019-01-25T02:39:34.332Z,86.04
2019-01-25T02:40:39.087Z,85.41
2019-01-25T02:41:35.276Z,84.84
2019-01-25T02:42:34.270Z,85.05
2019-01-25T02:43:34.273Z,85.19
2019-01-25T02:44:34.263Z,85.51
2019-01-25T02:45:34.241Z,85.93
2019-01-25T02:46:34.237Z,85.72
2019-01-25T02:47:34.207Z,85.72
2019-01-25T02:48:34.226Z,86.15
2019-01-25T02:49:34.183Z,86.04
2019-01-25T02:50:34.169Z,85.93
2019-01-25T02:51:34.196Z,86.15
2019-01-25T02:52:34.149Z,85.51
2019-01-25T02:53:34.138Z,86.04
2019-01-25T02:54:34.125Z,85.79
2019-01-25T02:55:34.118Z,85.61
2019-01-25T02:56:34.140Z,85.51
2019-01-25T02:57:34.096Z,85.72
2019-01-25T02:58:34.087Z,85.83
2019-01-25T02:59:34.082Z,86.25
2019-01-25T03:00:34.065Z,85.83
2019-01-25T03:01:34.168Z,85.19
2019-01-25T03:02:34.044Z,85.30
2019-01-25T03:03:34.039Z,85.30
2019-01-25T03:04:34.014Z,85.83
2019-01-25T03:05:34.016Z,85.72
2019-01-25T03:06:34.021Z,85.30
2019-01-25T03:07:33.981Z,85.19
2019-01-25T03:08:33.972Z,85.19
2019-01-25T03:09:33.961Z,84.98
2019-01-25T03:10:33.949Z,85.51
2019-01-25T03:11:33.973Z,85.61
2019-01-25T03:12:33.936Z,85.30
2019-01-25T03:13:33.927Z,85.19
2019-01-25T03:14:33.905Z,85.72
2019-01-25T03:15:33.894Z,85.72
2019-01-25T03:16:33.909Z,85.51
2019-01-25T03:17:33.873Z,85.30
2019-01-25T03:18:33.860Z,85.09
2019-01-25T03:19:33.858Z,85.16
2019-01-25T03:20:33.866Z,85.51
2019-01-25T03:21:33.849Z,85.51
2019-01-25T03:22:33.817Z,85.09
2019-01-25T03:23:33.808Z,85.26
2019-01-25T03:24:33.802Z,85.09
2019-01-25T03:25:33.824Z,85.19
2019-01-25T03:26:33.779Z,85.09
2019-01-25T03:27:33.789Z,85.30
2019-01-25T03:28:33.752Z,85.09
2019-01-25T03:29:33.767Z,85.41
2019-01-25T03:30:33.733Z,85.16
2019-01-25T03:31:33.731Z,85.58
2019-01-25T03:32:33.716Z,85.47
2019-01-25T03:33:33.703Z,85.58
2019-01-25T03:34:33.708Z,85.79
2019-01-25T03:35:33.696Z,86.00
2019-01-25T03:36:33.689Z,85.68
2019-01-25T03:37:33.659Z,85.72
2019-01-25T03:38:33.641Z,86.21
2019-01-25T03:39:33.637Z,85.79
2019-01-25T03:40:33.644Z,84.98
2019-01-25T03:41:33.607Z,85.16
2019-01-25T03:42:33.598Z,85.68
2019-01-25T03:43:33.585Z,85.68
2019-01-25T03:44:33.572Z,86.10
2019-01-25T03:45:33.611Z,85.58
2019-01-25T03:46:33.549Z,85.26
2019-01-25T03:47:33.539Z,85.26
2019-01-25T03:48:33.526Z,85.79
2019-01-25T03:49:33.519Z,85.68
2019-01-25T03:50:33.538Z,86.00
2019-01-25T03:51:33.502Z,85.36
2019-01-25T03:52:33.484Z,85.26
2019-01-25T03:53:33.495Z,85.47
2019-01-25T03:54:33.487Z,85.68
2019-01-25T03:55:33.455Z,85.47
2019-01-25T03:56:33.440Z,85.16
2019-01-25T03:57:33.429Z,84.94
2019-01-25T03:58:33.457Z,85.16
2019-01-25T03:59:33.442Z,85.16
2019-01-25T04:00:33.398Z,85.16
2019-01-25T04:01:33.385Z,85.26
2019-01-25T04:02:33.393Z,85.26
2019-01-25T04:03:33.365Z,85.36
2019-01-25T04:04:33.377Z,85.79
2019-01-25T04:05:33.354Z,84.94
2019-01-25T04:06:33.336Z,85.16
2019-01-25T04:07:33.322Z,85.05
2019-01-25T04:08:33.339Z,84.94
2019-01-25T04:09:33.297Z,85.26
2019-01-25T04:10:33.309Z,85.26
2019-01-25T04:11:33.287Z,85.16
2019-01-25T04:12:33.281Z,86.00
2019-01-25T04:13:33.253Z,85.79
2019-01-25T04:14:33.246Z,85.05
2019-01-25T04:15:33.265Z,85.26
2019-01-25T04:16:33.219Z,85.79
2019-01-25T04:17:33.210Z,85.79
2019-01-25T04:18:33.202Z,86.21
2019-01-25T04:19:33.198Z,85.89
2019-01-25T04:20:33.217Z,86.42
2019-01-25T04:21:33.190Z,85.89
2019-01-25T04:22:33.154Z,85.58
2019-01-25T04:23:33.144Z,85.79
2019-01-25T04:24:33.132Z,85.26
2019-01-25T04:25:33.151Z,85.68
2019-01-25T04:26:33.111Z,86.32
2019-01-25T04:27:33.114Z,85.79
2019-01-25T04:28:33.098Z,85.58
2019-01-25T04:29:33.110Z,86.00
2019-01-25T04:30:33.224Z,85.43
2019-01-25T04:31:33.055Z,85.68
2019-01-25T04:32:33.047Z,86.21
2019-01-25T04:33:33.033Z,86.32
2019-01-25T04:34:33.055Z,85.58
2019-01-25T04:35:33.034Z,85.22
2019-01-25T04:36:33.002Z,85.64
2019-01-25T04:37:32.990Z,85.75
2019-01-25T04:38:33.008Z,85.64
2019-01-25T04:39:32.971Z,86.28
2019-01-25T04:40:32.966Z,85.68
2019-01-25T04:41:32.948Z,86.32
2019-01-25T04:42:32.935Z,86.28
2019-01-25T04:43:32.947Z,86.17
2019-01-25T04:44:32.913Z,86.21
2019-01-25T04:45:32.902Z,86.10
2019-01-25T04:46:32.898Z,85.85
2019-01-25T04:47:32.895Z,86.07
2019-01-25T04:48:32.894Z,85.36
2019-01-25T04:49:32.861Z,85.22
2019-01-25T04:50:32.871Z,85.05
2019-01-25T04:51:32.838Z,85.26
2019-01-25T04:52:32.826Z,86.32
2019-01-25T04:53:32.821Z,86.21
2019-01-25T04:54:32.802Z,85.68
2019-01-25T04:55:32.821Z,86.10
2019-01-25T04:56:32.802Z,86.10
2019-01-25T04:57:32.771Z,86.00
2019-01-25T04:58:32.783Z,85.89
2019-01-25T04:59:32.760Z,85.96
2019-01-25T05:00:32.754Z,85.96
2019-01-25T05:01:32.728Z,85.96
2019-01-25T05:02:32.727Z,85.85
2019-01-25T05:03:32.734Z,86.17
2019-01-25T05:04:32.697Z,85.96
2019-01-25T05:05:32.687Z,86.17
2019-01-25T05:06:32.673Z,85.64
2019-01-25T05:07:32.664Z,85.89
2019-01-25T05:08:32.677Z,86.00
2019-01-25T05:09:32.646Z,86.07
2019-01-25T05:10:32.628Z,85.75
2019-01-25T05:11:32.648Z,85.96
2019-01-25T05:12:32.608Z,85.64
2019-01-25T05:13:32.619Z,85.96
2019-01-25T05:14:32.585Z,85.85
2019-01-25T05:15:32.576Z,85.85
2019-01-25T05:16:32.588Z,85.96
2019-01-25T05:17:32.563Z,86.07
2019-01-25T05:18:32.540Z,85.75
2019-01-25T05:19:32.532Z,86.07
2019-01-25T05:20:32.521Z,85.64
2019-01-25T05:21:32.534Z,85.96
2019-01-25T05:22:32.497Z,85.96
2019-01-25T05:23:32.491Z,86.28
2019-01-25T05:24:32.491Z,86.49
2019-01-25T05:25:32.464Z,86.49
2019-01-25T05:26:32.482Z,86.70
2019-01-25T05:27:32.441Z,86.91
2019-01-25T05:28:32.430Z,86.80
2019-01-25T05:29:32.426Z,87.02
2019-01-25T05:30:32.417Z,86.28
2019-01-25T05:31:32.433Z,85.75
2019-01-25T05:32:32.387Z,85.96
2019-01-25T05:33:32.397Z,85.96
2019-01-25T05:34:32.363Z,85.54
2019-01-25T05:35:32.352Z,85.64
2019-01-25T05:36:32.346Z,86.28
2019-01-25T05:37:32.345Z,86.28
2019-01-25T05:38:32.360Z,86.59
2019-01-25T05:39:32.314Z,86.28
2019-01-25T05:40:32.360Z,86.07
2019-01-25T05:41:32.289Z,86.07
2019-01-25T05:42:32.281Z,86.17
2019-01-25T05:43:32.311Z,86.59
2019-01-25T05:44:32.256Z,86.17
2019-01-25T05:45:32.242Z,86.17
2019-01-25T05:46:32.237Z,86.07
2019-01-25T05:47:32.229Z,86.59
2019-01-25T05:48:32.235Z,86.70
2019-01-25T05:49:32.217Z,86.91
2019-01-25T05:50:32.188Z,87.05
2019-01-25T05:51:33.787Z,86.74
2019-01-25T05:52:32.169Z,87.37
2019-01-25T05:53:32.178Z,86.84
2019-01-25T05:54:32.146Z,86.53
2019-01-25T05:55:32.150Z,86.84
2019-01-25T05:56:32.143Z,86.80
2019-01-25T05:57:32.112Z,86.84
2019-01-25T05:58:32.134Z,86.91
2019-01-25T05:59:32.099Z,87.12
2019-01-25T06:00:32.102Z,87.02
2019-01-25T06:01:32.077Z,86.63
2019-01-25T06:02:32.055Z,87.16
2019-01-25T06:03:32.047Z,87.02
2019-01-25T06:04:32.035Z,86.74
2019-01-25T06:05:32.050Z,87.12
2019-01-25T06:06:32.012Z,86.91
2019-01-25T06:07:32.007Z,87.65
2019-01-25T06:08:31.994Z,87.54
2019-01-25T06:09:31.980Z,87.54
2019-01-25T06:10:32.001Z,87.76
2019-01-25T06:11:35.617Z,87.65
2019-01-25T06:12:31.946Z,87.54
2019-01-25T06:13:31.943Z,86.91
2019-01-25T06:14:31.926Z,86.91
2019-01-25T06:15:31.951Z,86.91
2019-01-25T06:16:31.910Z,87.33
2019-01-25T06:17:31.892Z,87.33
2019-01-25T06:18:31.885Z,86.70
2019-01-25T06:19:31.870Z,86.59
2019-01-25T06:20:31.889Z,86.70
2019-01-25T06:21:31.856Z,86.80
2019-01-25T06:22:31.840Z,87.12
2019-01-25T06:23:31.831Z,86.91
2019-01-25T06:24:31.814Z,86.91
2019-01-25T06:25:31.837Z,86.91
2019-01-25T06:26:31.793Z,87.02
2019-01-25T06:27:31.785Z,86.91
2019-01-25T06:28:31.825Z,87.12
2019-01-25T06:29:31.760Z,87.02
2019-01-25T06:30:31.774Z,87.19
2019-01-25T06:31:31.741Z,87.54
2019-01-25T06:32:31.730Z,87.12
2019-01-25T06:33:31.723Z,87.29
2019-01-25T06:34:31.711Z,86.87
2019-01-25T06:35:31.973Z,87.61
2019-01-25T06:36:31.684Z,87.40
2019-01-25T06:37:31.718Z,87.71
2019-01-25T06:38:31.718Z,87.61
2019-01-25T06:39:31.680Z,87.29
2019-01-25T06:40:31.649Z,87.40
2019-01-25T06:41:31.632Z,87.29
2019-01-25T06:42:31.619Z,86.45
2019-01-25T06:43:31.608Z,87.40
2019-01-25T06:44:31.613Z,87.29
2019-01-25T06:45:31.592Z,86.98
2019-01-25T06:46:31.577Z,86.87
2019-01-25T06:47:31.580Z,87.29
2019-01-25T06:48:31.584Z,87.50
2019-01-25T06:49:31.569Z,88.35
2019-01-25T06:50:31.531Z,88.24
2019-01-25T06:51:31.547Z,87.93
2019-01-25T06:52:31.514Z,87.50
2019-01-25T06:53:31.575Z,87.71
2019-01-25T06:54:31.490Z,87.82
2019-01-25T06:55:31.482Z,88.13
2019-01-25T06:56:31.470Z,88.45
2019-01-25T06:57:31.457Z,88.35
2019-01-25T06:58:31.473Z,89.19
2019-01-25T06:59:31.462Z,88.45
2019-01-25T07:00:31.429Z,88.56
2019-01-25T07:01:31.440Z,88.77
2019-01-25T07:02:31.415Z,89.09
2019-01-25T07:03:31.390Z,88.35
2019-01-25T07:04:31.407Z,88.13
2019-01-25T07:05:31.371Z,88.13
2019-01-25T07:06:31.361Z,88.24
2019-01-25T07:07:31.347Z,88.35
2019-01-25T07:08:31.341Z,88.66
2019-01-25T07:09:31.364Z,88.56
2019-01-25T07:10:31.316Z,88.45
2019-01-25T07:11:31.307Z,88.66
2019-01-25T07:12:31.346Z,88.66
2019-01-25T07:13:31.320Z,88.45
2019-01-25T07:14:31.302Z,88.77
2019-01-25T07:15:31.265Z,88.45
2019-01-25T07:16:31.255Z,88.24
2019-01-25T07:17:31.277Z,88.87
2019-01-25T07:18:31.235Z,88.87
2019-01-25T07:19:31.251Z,88.45
2019-01-25T07:20:31.204Z,88.41
2019-01-25T07:21:31.208Z,88.87
2019-01-25T07:22:31.211Z,88.56
2019-01-25T07:23:31.197Z,88.45
2019-01-25T07:24:31.163Z,88.83
2019-01-25T07:25:31.151Z,89.29
2019-01-25T07:26:31.141Z,89.36
2019-01-25T07:27:31.135Z,89.40
2019-01-25T07:28:31.147Z,88.73
2019-01-25T07:29:31.140Z,89.40
2019-01-25T07:30:31.125Z,89.25
2019-01-25T07:31:31.085Z,89.29
2019-01-25T07:32:31.236Z,88.98
2019-01-25T07:33:31.116Z,89.29
2019-01-25T07:34:31.120Z,89.40
2019-01-25T07:35:31.060Z,89.15
2019-01-25T07:36:31.044Z,89.57
2019-01-25T07:37:31.070Z,89.25
2019-01-25T07:38:31.049Z,89.19
2019-01-25T07:39:31.047Z,89.40
2019-01-25T07:40:31.002Z,89.82
2019-01-25T07:41:30.980Z,89.47
2019-01-25T07:42:31.023Z,89.89
2019-01-25T07:43:30.959Z,90.67
2019-01-25T07:44:30.975Z,89.72
2019-01-25T07:45:30.957Z,90.45
2019-01-25T07:46:30.964Z,90.45
2019-01-25T07:47:32.758Z,90.14
2019-01-25T07:48:30.898Z,90.35
2019-01-25T07:49:30.887Z,90.03
2019-01-25T07:50:30.921Z,90.88
2019-01-25T07:51:30.867Z,90.98
2019-01-25T07:52:30.860Z,90.88
2019-01-25T07:53:30.877Z,90.67
2019-01-25T07:54:30.891Z,90.62
2019-01-25T07:55:30.849Z,90.83
2019-01-25T07:56:30.829Z,91.51
2019-01-25T07:57:30.821Z,91.99
2019-01-25T07:58:30.846Z,91.47
2019-01-25T07:59:30.782Z,91.47
2019-01-25T08:00:30.804Z,91.51
2019-01-25T08:01:30.786Z,91.09
2019-01-25T08:02:30.756Z,91.61
2019-01-25T08:03:30.771Z,92.35
2019-01-25T08:04:30.722Z,92.35
2019-01-25T08:05:30.760Z,92.57
2019-01-25T08:06:30.731Z,92.88
2019-01-25T08:07:30.693Z,92.57
2019-01-25T08:08:30.777Z,92.67
2019-01-25T08:09:30.763Z,92.88
2019-01-25T08:10:30.659Z,93.30
2019-01-25T08:11:30.691Z,93.30
2019-01-25T08:12:30.660Z,92.88
2019-01-25T08:13:30.698Z,92.99
2019-01-25T08:14:30.661Z,93.73
2019-01-25T08:15:30.620Z,93.51
2019-01-25T08:16:30.641Z,93.62
2019-01-25T08:17:30.593Z,93.62
2019-01-25T08:18:30.594Z,93.41
2019-01-25T08:19:30.604Z,93.62
2019-01-25T08:20:30.560Z,93.93
2019-01-25T08:21:30.581Z,94.04
2019-01-25T08:22:30.532Z,93.73
2019-01-25T08:23:30.537Z,93.83
2019-01-25T08:24:30.509Z,94.25
2019-01-25T08:25:30.502Z,94.46
2019-01-25T08:26:30.491Z,94.53
2019-01-25T08:27:30.557Z,94.67
2019-01-25T08:28:30.500Z,94.15
2019-01-25T08:29:30.497Z,94.53
2019-01-25T08:30:30.464Z,94.57
2019-01-25T08:31:30.477Z,94.46
2019-01-25T08:32:30.430Z,94.57
2019-01-25T08:33:30.453Z,94.25
2019-01-25T08:34:30.484Z,94.73
2019-01-25T08:35:30.418Z,94.78
2019-01-25T08:36:30.392Z,94.78
2019-01-25T08:37:30.363Z,94.78
2019-01-25T08:38:30.520Z,94.78
2019-01-25T08:39:30.371Z,94.53
2019-01-25T08:40:30.332Z,94.53
2019-01-25T08:41:30.320Z,94.53
2019-01-25T08:42:30.344Z,94.31
2019-01-25T08:43:30.311Z,94.53
2019-01-25T08:44:30.320Z,94.21
2019-01-25T08:45:30.280Z,94.53
2019-01-25T08:46:30.325Z,93.68
2019-01-25T08:47:30.329Z,94.95
2019-01-25T08:48:30.277Z,95.05
2019-01-25T08:49:30.301Z,94.63
2019-01-25T08:50:30.276Z,93.99
2019-01-25T08:51:30.215Z,94.53
2019-01-25T08:52:30.253Z,94.21
2019-01-25T08:53:30.188Z,95.05
2019-01-25T08:54:30.273Z,95.05
2019-01-25T08:55:30.170Z,94.90
2019-01-25T08:56:30.293Z,94.69
2019-01-25T08:57:30.166Z,94.59
2019-01-25T08:58:30.171Z,94.38
2019-01-25T08:59:30.177Z,94.17
2019-01-25T09:00:30.140Z,93.95
2019-01-25T09:01:30.101Z,94.06
2019-01-25T09:02:30.099Z,94.06
2019-01-25T09:03:30.084Z,93.64
2019-01-25T09:04:30.104Z,94.06
2019-01-25T09:05:30.055Z,93.85
2019-01-25T09:06:30.072Z,94.38
2019-01-25T09:07:30.043Z,94.38
2019-01-25T09:08:30.027Z,93.95
2019-01-25T09:09:30.037Z,93.64
2019-01-25T09:10:30.199Z,93.38
2019-01-25T09:11:30.028Z,93.32
2019-01-25T09:12:29.988Z,93.49
2019-01-25T09:13:29.967Z,93.28
2019-01-25T09:14:29.963Z,92.86
2019-01-25T09:15:29.953Z,92.65
2019-01-25T09:16:29.967Z,92.82
2019-01-25T09:17:29.935Z,92.86
2019-01-25T09:18:29.925Z,92.82
2019-01-25T09:19:29.899Z,92.86
2019-01-25T09:20:29.891Z,92.40
2019-01-25T09:21:29.912Z,92.92
2019-01-25T09:22:29.897Z,92.40
2019-01-25T09:23:29.864Z,92.86
2019-01-25T09:24:29.908Z,92.71
2019-01-25T09:25:29.835Z,92.61
2019-01-25T09:26:29.825Z,92.40
2019-01-25T09:27:29.960Z,92.71
2019-01-25T09:28:29.906Z,92.40
2019-01-25T09:29:29.833Z,92.61
2019-01-25T09:30:29.871Z,92.50
2019-01-25T09:31:29.851Z,92.33
2019-01-25T09:32:29.768Z,92.54
2019-01-25T09:33:29.778Z,92.86
2019-01-25T09:34:29.738Z,92.71
2019-01-25T09:35:29.790Z,92.96
2019-01-25T09:36:29.730Z,93.03
2019-01-25T09:37:29.716Z,92.96
2019-01-25T09:38:29.701Z,93.07
2019-01-25T09:39:29.692Z,93.13
2019-01-25T09:40:29.703Z,93.03
2019-01-25T09:41:29.668Z,92.61
2019-01-25T09:42:31.107Z,92.46
2019-01-25T09:43:29.654Z,92.50
2019-01-25T09:44:29.638Z,92.82
2019-01-25T09:45:29.637Z,92.61
2019-01-25T09:46:30.206Z,92.61
2019-01-25T09:47:29.601Z,92.77
2019-01-25T09:48:29.579Z,92.50
2019-01-25T09:49:29.579Z,91.87
2019-01-25T09:50:29.602Z,92.82
2019-01-25T09:51:29.554Z,92.61
2019-01-25T09:52:29.536Z,92.71
2019-01-25T09:53:29.523Z,93.03
2019-01-25T09:54:29.557Z,92.82
2019-01-25T09:55:29.505Z,92.92
2019-01-25T09:56:29.502Z,93.13
2019-01-25T09:57:29.516Z,93.03
2019-01-25T09:58:29.478Z,92.82
2019-01-25T09:59:29.461Z,92.92
2019-01-25T10:00:29.447Z,92.50
2019-01-25T10:01:29.435Z,92.77
2019-01-25T10:02:29.440Z,92.99
2019-01-25T10:03:29.420Z,92.77
2019-01-25T10:04:29.409Z,92.46
2019-01-25T10:05:29.401Z,92.57
2019-01-25T10:06:29.384Z,92.88
2019-01-25T10:07:29.484Z,92.46
2019-01-25T10:08:29.362Z,92.46
2019-01-25T10:09:29.372Z,92.88
2019-01-25T10:10:29.332Z,92.99
2019-01-25T10:11:29.326Z,92.57
2019-01-25T10:12:29.353Z,92.35
2019-01-25T10:13:29.356Z,91.93
2019-01-25T10:14:29.295Z,92.14
2019-01-25T10:15:29.277Z,92.57
2019-01-25T10:16:29.291Z,92.31
2019-01-25T10:17:29.268Z,92.10
2019-01-25T10:18:29.273Z,92.00
2019-01-25T10:19:29.234Z,91.93
2019-01-25T10:20:29.219Z,92.10
2019-01-25T10:21:29.238Z,91.78
2019-01-25T10:22:29.219Z,92.21
2019-01-25T10:23:29.194Z,91.89
2019-01-25T10:24:29.175Z,91.68
2019-01-25T10:25:29.212Z,92.52
2019-01-25T10:26:29.156Z,92.21
2019-01-25T10:27:29.165Z,92.21
2019-01-25T10:28:29.133Z,91.68
2019-01-25T10:29:29.145Z,92.73
2019-01-25T10:30:29.162Z,92.48
2019-01-25T10:31:29.098Z,92.16
2019-01-25T10:32:29.087Z,91.22
2019-01-25T10:33:29.077Z,91.22
2019-01-25T10:34:29.065Z,91.64
2019-01-25T10:35:29.079Z,91.47
2019-01-25T10:36:29.070Z,92.00
2019-01-25T10:37:29.074Z,91.89
2019-01-25T10:38:29.021Z,91.96
2019-01-25T10:39:29.090Z,92.06
2019-01-25T10:40:29.007Z,92.73
2019-01-25T10:41:29.004Z,92.52
2019-01-25T10:42:28.996Z,92.06
2019-01-25T10:43:28.967Z,92.06
2019-01-25T10:44:28.955Z,92.58
2019-01-25T10:45:28.950Z,92.48
2019-01-25T10:46:28.953Z,92.80
2019-01-25T10:47:28.920Z,92.58
2019-01-25T10:48:28.905Z,92.16
2019-01-25T10:49:28.899Z,92.06
2019-01-25T10:50:28.896Z,91.49
2019-01-25T10:51:28.907Z,90.76
2019-01-25T10:52:28.863Z,91.39
2019-01-25T10:53:28.854Z,91.71
2019-01-25T10:54:28.851Z,91.64
2019-01-25T10:55:28.835Z,92.65
2019-01-25T10:56:28.854Z,91.39
2019-01-25T10:57:28.807Z,92.23
2019-01-25T10:58:28.816Z,91.91
2019-01-25T10:59:28.789Z,91.49
2019-01-25T11:00:28.779Z,91.28
2019-01-25T11:01:28.760Z,91.49
2019-01-25T11:02:28.755Z,91.18
2019-01-25T11:03:28.767Z,91.60
2019-01-25T11:04:28.733Z,91.87
2019-01-25T11:05:28.721Z,90.82
2019-01-25T11:06:28.711Z,90.72
2019-01-25T11:07:28.707Z,90.89
2019-01-25T11:08:28.706Z,90.47
2019-01-25T11:09:28.674Z,90.15
2019-01-25T11:10:28.663Z,90.22
2019-01-25T11:11:28.648Z,89.69
2019-01-25T11:12:28.639Z,90.15
2019-01-25T11:13:28.655Z,89.79
2019-01-25T11:14:28.619Z,89.59
2019-01-25T11:15:28.607Z,90.42
2019-01-25T11:16:28.597Z,90.07
2019-01-25T11:17:28.608Z,89.75
2019-01-25T11:18:28.578Z,90.07
2019-01-25T11:19:28.566Z,89.65
2019-01-25T11:20:28.550Z,89.75
2019-01-25T11:21:28.561Z,89.50
2019-01-25T11:22:28.608Z,89.92
2019-01-25T11:23:28.524Z,89.09
2019-01-25T11:24:28.503Z,89.04
2019-01-25T11:25:28.586Z,89.25
2019-01-25T11:26:28.527Z,89.57
2019-01-25T11:27:29.360Z,88.73
2019-01-25T11:28:28.470Z,89.09
2019-01-25T11:29:28.474Z,89.25
2019-01-25T11:30:28.445Z,89.50
2019-01-25T11:31:28.467Z,89.29
2019-01-25T11:32:28.418Z,89.61
2019-01-25T11:33:28.429Z,89.61
2019-01-25T11:34:33.009Z,90.03
2019-01-25T11:35:28.406Z,89.57
2019-01-25T11:36:28.372Z,89.92
2019-01-25T11:37:28.369Z,89.67
2019-01-25T11:38:28.347Z,89.61
2019-01-25T11:39:28.366Z,89.25
2019-01-25T11:40:28.331Z,89.25
2019-01-25T11:41:28.319Z,89.04
2019-01-25T11:42:28.303Z,88.84
2019-01-25T11:43:28.292Z,88.52
2019-01-25T11:44:28.307Z,88.90
2019-01-25T11:45:28.284Z,88.17
2019-01-25T11:46:28.264Z,88.48
2019-01-25T11:47:28.266Z,88.02
2019-01-25T11:48:28.261Z,88.02
2019-01-25T11:49:28.227Z,87.71
2019-01-25T11:50:28.216Z,88.29
2019-01-25T11:51:28.210Z,87.52
2019-01-25T11:52:28.194Z,86.27
2019-01-25T11:53:28.204Z,86.27
2019-01-25T11:54:28.170Z,86.06
2019-01-25T11:55:28.184Z,85.50
2019-01-25T11:56:28.175Z,84.87
2019-01-25T11:57:28.141Z,85.29
2019-01-25T11:58:28.130Z,84.66
2019-01-25T11:59:28.116Z,84.31
2019-01-25T12:00:28.103Z,84.17
2019-01-25T12:01:28.121Z,83.95
2019-01-25T12:02:28.082Z,83.85
2019-01-25T12:03:28.075Z,83.16
2019-01-25T12:04:28.056Z,83.37
2019-01-25T12:05:28.078Z,83.37
2019-01-25T12:06:28.037Z,83.16
2019-01-25T12:07:28.025Z,83.23
2019-01-25T12:08:28.017Z,83.06
2019-01-25T12:09:28.002Z,82.70
2019-01-25T12:10:28.022Z,82.29
2019-01-25T12:11:27.989Z,82.70
2019-01-25T12:12:28.009Z,82.81
2019-01-25T12:13:28.000Z,82.07
2019-01-25T12:14:27.964Z,82.50
2019-01-25T12:15:27.965Z,82.64
2019-01-25T12:16:27.963Z,82.81
2019-01-25T12:17:29.597Z,82.60
2019-01-25T12:18:27.940Z,82.18
2019-01-25T12:19:27.904Z,82.14
2019-01-25T12:20:27.901Z,82.25
2019-01-25T12:21:27.915Z,82.04
2019-01-25T12:22:27.945Z,81.21
2019-01-25T12:23:27.848Z,81.16
2019-01-25T12:24:27.837Z,80.85
2019-01-25T12:25:27.835Z,80.13
2019-01-25T12:26:27.843Z,80.92
2019-01-25T12:27:27.818Z,79.98
2019-01-25T12:28:27.801Z,79.36
2019-01-25T12:29:27.838Z,79.36
2019-01-25T12:30:27.779Z,78.73
2019-01-25T12:31:27.789Z,79.15
2019-01-25T12:32:27.760Z,79.32
2019-01-25T12:33:27.757Z,78.59
2019-01-25T12:34:27.760Z,78.69
2019-01-25T12:35:27.779Z,79.43
2019-01-25T12:36:27.708Z,79.43
2019-01-25T12:37:27.704Z,79.11
2019-01-25T12:38:27.723Z,79.32
2019-01-25T12:39:27.716Z,78.80
2019-01-25T12:40:27.666Z,79.25
2019-01-25T12:41:27.657Z,79.67
2019-01-25T12:42:27.641Z,80.51
2019-01-25T12:43:27.671Z,80.85
2019-01-25T12:44:27.623Z,80.51
2019-01-25T12:45:27.619Z,79.91
2019-01-25T12:46:27.610Z,80.51
2019-01-25T12:47:27.629Z,80.61
2019-01-25T12:48:27.586Z,81.02
2019-01-25T12:49:27.617Z,80.82
2019-01-25T12:50:27.563Z,80.61
2019-01-25T12:51:27.553Z,81.13
2019-01-25T12:52:27.550Z,81.23